This is the latest recevied weather packets stored in our database for station/object N6XE. If no packets are shown the sender has not sent any weather packets the latest 10 day(s).
| Time | Temp. | Humidity | Pressure | Rain* | Wind** | Luminosity | Snow |
|---|---|---|---|---|---|---|---|
| 1777920318 | 16.67° C | 76% | 1018.2 hPa | 0 mm | - | - | - |
| 1777919126 | 16.67° C | 76% | 1018.2 hPa | 0 mm | - | - | - |
| 1777913729 | 15.56° C | 74% | 1017.9 hPa | 0 mm | - | - | - |
| 1777913115 | 15° C | 77% | 1017.8 hPa | 0 mm | - | - | - |
| 1777910732 | 14.44° C | 78% | 1017.7 hPa | 0 mm | - | - | - |
| 1777907718 | 13.89° C | 82% | 1017.7 hPa | 0 mm | - | - | - |
| 1777905931 | 13.89° C | 81% | 1017.9 hPa | 0 mm | - | - | - |
| 1777899920 | 12.78° C | 85% | 1017.3 hPa | 0 mm | - | - | - |
| 1777896923 | 12.78° C | 84% | 1016.9 hPa | 0 mm | - | - | - |
| 1777892718 | 13.33° C | 82% | 1016.9 hPa | 0 mm | - | - | - |
| 1777892122 | 13.33° C | 82% | 1016.9 hPa | 0 mm | - | - | - |
| 1777888531 | 13.89° C | 81% | 1017.1 hPa | 0 mm | - | - | - |
| 1777885536 | 13.89° C | 82% | 1017 hPa | 0 mm | - | - | - |
| 1777884920 | 13.89° C | 82% | 1017.1 hPa | 0 mm | - | - | - |
| 1777882540 | 13.89° C | 83% | 1017.3 hPa | 0 mm | - | - | - |
| 1777880720 | 13.89° C | 80% | 1017 hPa | 0 mm | - | - | - |
| 1777878332 | 13.89° C | 79% | 1016.9 hPa | 0 mm | - | - | - |
| 1777877123 | 13.89° C | 80% | 1016.9 hPa | 0 mm | - | - | - |
| 1777850118 | 22.22° C | 54% | 1013.8 hPa | 0 mm | - | - | - |
| 1777847122 | 22.78° C | 54% | 1014.1 hPa | 0 mm | - | - | - |
| 1777845930 | 22.78° C | 54% | 1014.4 hPa | 0 mm | - | - | - |
| 1777843529 | 21.67° C | 57% | 1014.7 hPa | 0 mm | - | - | - |
| 1777841725 | 22.22° C | 57% | 1014.7 hPa | 0 mm | - | - | - |
| 1777837519 | 21.67° C | 56% | 1014.9 hPa | 0 mm | - | - | - |
| 1777831518 | 20.56° C | 59% | 1015.1 hPa | 0 mm | - | - | - |
* Rain latest hour (hover to see other rain measurements)
** Current wind speed in m/s (hover to see current wind gust speed)